sensor_id;sensor_type;location;lat;lon;timestamp;temperature;humidity
758;DHT22;363;48.764;9.172;2022-12-20T00:01:29;6.90;99.90
758;DHT22;363;48.764;9.172;2022-12-20T00:03:57;7.10;99.90
758;DHT22;363;48.764;9.172;2022-12-20T00:06:23;6.80;99.90
758;DHT22;363;48.764;9.172;2022-12-20T00:08:58;6.90;99.90
758;DHT22;363;48.764;9.172;2022-12-20T00:11:25;6.80;99.90
758;DHT22;363;48.764;9.172;2022-12-20T00:13:51;6.70;99.90
758;DHT22;363;48.764;9.172;2022-12-20T00:16:22;6.70;99.90
758;DHT22;363;48.764;9.172;2022-12-20T00:18:53;6.70;99.90
758;DHT22;363;48.764;9.172;2022-12-20T00:21:19;6.80;99.90
758;DHT22;363;48.764;9.172;2022-12-20T00:23:44;7.00;99.90
758;DHT22;363;48.764;9.172;2022-12-20T00:26:14;6.80;99.90
758;DHT22;363;48.764;9.172;2022-12-20T00:28:41;7.00;99.90
758;DHT22;363;48.764;9.172;2022-12-20T00:31:08;7.00;99.90
758;DHT22;363;48.764;9.172;2022-12-20T00:33:35;7.10;99.90
758;DHT22;363;48.764;9.172;2022-12-20T00:36:03;6.80;99.90
758;DHT22;363;48.764;9.172;2022-12-20T00:38:28;6.90;99.90
758;DHT22;363;48.764;9.172;2022-12-20T00:43:29;6.70;99.90
758;DHT22;363;48.764;9.172;2022-12-20T00:45:55;6.60;99.90
758;DHT22;363;48.764;9.172;2022-12-20T00:48:20;6.70;99.90
758;DHT22;363;48.764;9.172;2022-12-20T00:50:46;6.60;99.90
758;DHT22;363;48.764;9.172;2022-12-20T00:53:12;6.60;99.90
758;DHT22;363;48.764;9.172;2022-12-20T00:55:41;6.60;99.90
758;DHT22;363;48.764;9.172;2022-12-20T00:58:07;7.00;99.90
758;DHT22;363;48.764;9.172;2022-12-20T01:00:33;6.50;99.90
758;DHT22;363;48.764;9.172;2022-12-20T01:02:58;6.80;99.90
758;DHT22;363;48.764;9.172;2022-12-20T01:05:24;6.50;99.90
758;DHT22;363;48.764;9.172;2022-12-20T01:07:50;6.60;99.90
758;DHT22;363;48.764;9.172;2022-12-20T01:10:15;6.70;99.90
758;DHT22;363;48.764;9.172;2022-12-20T01:12:42;6.50;99.90
758;DHT22;363;48.764;9.172;2022-12-20T01:15:08;6.70;99.90
758;DHT22;363;48.764;9.172;2022-12-20T01:17:34;6.60;99.90
758;DHT22;363;48.764;9.172;2022-12-20T01:20:00;6.60;99.90
758;DHT22;363;48.764;9.172;2022-12-20T01:22:25;6.70;99.90
758;DHT22;363;48.764;9.172;2022-12-20T01:24:51;6.40;99.90
758;DHT22;363;48.764;9.172;2022-12-20T01:27:16;6.50;99.90
758;DHT22;363;48.764;9.172;2022-12-20T01:29:42;6.60;99.90
758;DHT22;363;48.764;9.172;2022-12-20T01:32:07;6.40;99.90
758;DHT22;363;48.764;9.172;2022-12-20T01:34:33;6.50;99.90
758;DHT22;363;48.764;9.172;2022-12-20T01:36:58;6.60;99.90
758;DHT22;363;48.764;9.172;2022-12-20T01:39:24;6.30;99.90
758;DHT22;363;48.764;9.172;2022-12-20T01:41:50;6.60;99.90
758;DHT22;363;48.764;9.172;2022-12-20T01:46:42;6.50;99.90
758;DHT22;363;48.764;9.172;2022-12-20T01:49:16;6.40;99.90
758;DHT22;363;48.764;9.172;2022-12-20T01:51:45;6.40;99.90
758;DHT22;363;48.764;9.172;2022-12-20T01:54:18;6.20;99.90
758;DHT22;363;48.764;9.172;2022-12-20T01:56:54;6.20;99.90
758;DHT22;363;48.764;9.172;2022-12-20T01:59:21;6.20;99.90
758;DHT22;363;48.764;9.172;2022-12-20T02:01:47;6.20;99.90
758;DHT22;363;48.764;9.172;2022-12-20T02:04:13;6.30;99.90
758;DHT22;363;48.764;9.172;2022-12-20T02:06:38;6.30;99.90
758;DHT22;363;48.764;9.172;2022-12-20T02:09:05;6.40;99.90
758;DHT22;363;48.764;9.172;2022-12-20T02:14:40;6.30;99.90
758;DHT22;363;48.764;9.172;2022-12-20T02:17:31;6.40;99.90
758;DHT22;363;48.764;9.172;2022-12-20T02:25:52;6.40;99.90
758;DHT22;363;48.764;9.172;2022-12-20T02:31:33;6.60;99.90
758;DHT22;363;48.764;9.172;2022-12-20T02:34:02;6.20;99.90
758;DHT22;363;48.764;9.172;2022-12-20T02:36:28;6.30;99.90
758;DHT22;363;48.764;9.172;2022-12-20T02:38:53;6.30;99.90
758;DHT22;363;48.764;9.172;2022-12-20T02:41:26;6.40;99.90
758;DHT22;363;48.764;9.172;2022-12-20T02:44:00;6.40;99.90
758;DHT22;363;48.764;9.172;2022-12-20T02:46:46;6.10;99.90
758;DHT22;363;48.764;9.172;2022-12-20T02:49:17;6.10;99.90
758;DHT22;363;48.764;9.172;2022-12-20T02:51:46;6.20;99.90
758;DHT22;363;48.764;9.172;2022-12-20T02:54:14;6.10;99.90
758;DHT22;363;48.764;9.172;2022-12-20T02:56:50;6.20;99.90
758;DHT22;363;48.764;9.172;2022-12-20T02:59:21;6.30;99.90
758;DHT22;363;48.764;9.172;2022-12-20T03:01:51;6.10;99.90
758;DHT22;363;48.764;9.172;2022-12-20T03:04:19;6.20;99.90
758;DHT22;363;48.764;9.172;2022-12-20T03:07:15;6.30;99.90
758;DHT22;363;48.764;9.172;2022-12-20T03:09:42;6.50;99.90
758;DHT22;363;48.764;9.172;2022-12-20T03:12:09;6.30;99.90
758;DHT22;363;48.764;9.172;2022-12-20T03:14:36;6.10;99.90
758;DHT22;363;48.764;9.172;2022-12-20T03:17:03;6.10;99.90
758;DHT22;363;48.764;9.172;2022-12-20T03:19:28;6.40;99.90
758;DHT22;363;48.764;9.172;2022-12-20T03:21:54;6.50;99.90
758;DHT22;363;48.764;9.172;2022-12-20T03:24:20;6.40;99.90
758;DHT22;363;48.764;9.172;2022-12-20T03:26:46;6.60;99.90
758;DHT22;363;48.764;9.172;2022-12-20T03:29:11;6.50;99.90
758;DHT22;363;48.764;9.172;2022-12-20T03:31:37;6.70;99.90
758;DHT22;363;48.764;9.172;2022-12-20T03:34:03;6.60;99.90
758;DHT22;363;48.764;9.172;2022-12-20T03:36:29;6.70;99.90
758;DHT22;363;48.764;9.172;2022-12-20T03:38:55;6.20;99.90
758;DHT22;363;48.764;9.172;2022-12-20T03:41:22;6.30;99.90
758;DHT22;363;48.764;9.172;2022-12-20T03:43:48;6.60;99.90
758;DHT22;363;48.764;9.172;2022-12-20T03:46:14;6.30;99.90
758;DHT22;363;48.764;9.172;2022-12-20T03:48:40;6.50;99.90
758;DHT22;363;48.764;9.172;2022-12-20T03:51:06;6.30;99.90
758;DHT22;363;48.764;9.172;2022-12-20T03:53:31;6.50;99.90
758;DHT22;363;48.764;9.172;2022-12-20T03:55:57;6.60;99.90
758;DHT22;363;48.764;9.172;2022-12-20T03:58:23;6.60;99.90
758;DHT22;363;48.764;9.172;2022-12-20T04:00:48;6.60;99.90
758;DHT22;363;48.764;9.172;2022-12-20T04:03:14;6.50;99.90
758;DHT22;363;48.764;9.172;2022-12-20T04:05:40;6.50;99.90
758;DHT22;363;48.764;9.172;2022-12-20T04:08:06;6.60;99.90
758;DHT22;363;48.764;9.172;2022-12-20T04:10:32;6.80;99.90
758;DHT22;363;48.764;9.172;2022-12-20T04:13:17;6.80;99.90
758;DHT22;363;48.764;9.172;2022-12-20T04:15:43;6.90;99.90
758;DHT22;363;48.764;9.172;2022-12-20T04:18:08;6.90;99.90
758;DHT22;363;48.764;9.172;2022-12-20T04:20:34;6.80;99.90
758;DHT22;363;48.764;9.172;2022-12-20T04:22:59;6.70;99.90
758;DHT22;363;48.764;9.172;2022-12-20T04:25:25;6.90;99.90
758;DHT22;363;48.764;9.172;2022-12-20T04:27:51;6.80;99.90
758;DHT22;363;48.764;9.172;2022-12-20T04:30:16;7.10;99.90
758;DHT22;363;48.764;9.172;2022-12-20T04:32:42;7.00;99.90
758;DHT22;363;48.764;9.172;2022-12-20T04:35:08;7.00;99.90
758;DHT22;363;48.764;9.172;2022-12-20T04:37:34;7.20;99.90
758;DHT22;363;48.764;9.172;2022-12-20T04:39:59;7.20;99.90
758;DHT22;363;48.764;9.172;2022-12-20T04:42:25;6.90;99.90
758;DHT22;363;48.764;9.172;2022-12-20T04:44:50;6.80;99.90
758;DHT22;363;48.764;9.172;2022-12-20T04:47:16;7.10;99.90
758;DHT22;363;48.764;9.172;2022-12-20T04:49:41;7.20;99.90
758;DHT22;363;48.764;9.172;2022-12-20T04:52:07;7.10;99.90
758;DHT22;363;48.764;9.172;2022-12-20T04:54:51;7.10;99.90
758;DHT22;363;48.764;9.172;2022-12-20T04:57:17;7.10;99.90
758;DHT22;363;48.764;9.172;2022-12-20T04:59:43;7.30;99.90
758;DHT22;363;48.764;9.172;2022-12-20T05:02:08;7.20;99.90
758;DHT22;363;48.764;9.172;2022-12-20T05:04:34;7.00;99.90
758;DHT22;363;48.764;9.172;2022-12-20T05:07:00;7.30;99.90
758;DHT22;363;48.764;9.172;2022-12-20T05:09:25;7.20;99.90
758;DHT22;363;48.764;9.172;2022-12-20T05:11:51;7.30;99.90
758;DHT22;363;48.764;9.172;2022-12-20T05:14:16;7.30;99.90
758;DHT22;363;48.764;9.172;2022-12-20T05:16:42;7.50;99.90
758;DHT22;363;48.764;9.172;2022-12-20T05:19:08;7.60;99.90
758;DHT22;363;48.764;9.172;2022-12-20T05:21:33;7.10;99.90
758;DHT22;363;48.764;9.172;2022-12-20T05:24:18;7.30;99.90
758;DHT22;363;48.764;9.172;2022-12-20T05:27:02;7.50;99.90
758;DHT22;363;48.764;9.172;2022-12-20T05:29:28;7.50;99.90
758;DHT22;363;48.764;9.172;2022-12-20T05:31:53;7.60;99.90
758;DHT22;363;48.764;9.172;2022-12-20T05:34:19;7.30;99.90
758;DHT22;363;48.764;9.172;2022-12-20T05:36:45;7.60;99.90
758;DHT22;363;48.764;9.172;2022-12-20T05:39:10;7.30;99.90
758;DHT22;363;48.764;9.172;2022-12-20T05:41:37;7.60;99.90
758;DHT22;363;48.764;9.172;2022-12-20T05:44:03;7.40;99.90
758;DHT22;363;48.764;9.172;2022-12-20T05:46:28;7.50;99.90
758;DHT22;363;48.764;9.172;2022-12-20T05:48:54;7.50;99.90
758;DHT22;363;48.764;9.172;2022-12-20T05:51:20;7.40;99.90
758;DHT22;363;48.764;9.172;2022-12-20T05:53:45;7.60;99.90
758;DHT22;363;48.764;9.172;2022-12-20T05:56:11;7.50;99.90
758;DHT22;363;48.764;9.172;2022-12-20T05:58:37;7.70;99.90
758;DHT22;363;48.764;9.172;2022-12-20T06:01:04;7.50;99.90
758;DHT22;363;48.764;9.172;2022-12-20T06:03:31;7.50;99.90
758;DHT22;363;48.764;9.172;2022-12-20T06:05:56;7.70;99.90
758;DHT22;363;48.764;9.172;2022-12-20T06:08:22;7.50;99.90
758;DHT22;363;48.764;9.172;2022-12-20T06:10:49;7.60;99.90
758;DHT22;363;48.764;9.172;2022-12-20T06:13:15;7.50;99.90
758;DHT22;363;48.764;9.172;2022-12-20T06:15:40;7.70;99.90
758;DHT22;363;48.764;9.172;2022-12-20T06:18:06;7.50;99.90
758;DHT22;363;48.764;9.172;2022-12-20T06:20:33;7.60;99.90
758;DHT22;363;48.764;9.172;2022-12-20T06:22:59;7.50;99.90
758;DHT22;363;48.764;9.172;2022-12-20T06:25:25;7.40;99.90
758;DHT22;363;48.764;9.172;2022-12-20T06:27:50;7.40;99.90
758;DHT22;363;48.764;9.172;2022-12-20T06:30:16;7.70;99.90
758;DHT22;363;48.764;9.172;2022-12-20T06:32:42;7.80;99.90
758;DHT22;363;48.764;9.172;2022-12-20T06:35:08;7.50;99.90
758;DHT22;363;48.764;9.172;2022-12-20T06:37:34;7.80;99.90
758;DHT22;363;48.764;9.172;2022-12-20T06:40:01;7.70;99.90
758;DHT22;363;48.764;9.172;2022-12-20T06:42:27;7.70;99.90
758;DHT22;363;48.764;9.172;2022-12-20T06:44:52;7.80;99.90
758;DHT22;363;48.764;9.172;2022-12-20T06:47:18;7.60;99.90
758;DHT22;363;48.764;9.172;2022-12-20T06:49:44;7.80;99.90
758;DHT22;363;48.764;9.172;2022-12-20T06:52:09;8.00;99.90
758;DHT22;363;48.764;9.172;2022-12-20T06:54:35;8.00;99.90
758;DHT22;363;48.764;9.172;2022-12-20T06:57:00;7.90;99.90
758;DHT22;363;48.764;9.172;2022-12-20T06:59:26;8.10;99.90
758;DHT22;363;48.764;9.172;2022-12-20T07:01:51;8.00;99.90
758;DHT22;363;48.764;9.172;2022-12-20T07:04:17;8.00;99.90
758;DHT22;363;48.764;9.172;2022-12-20T07:06:43;8.10;99.90
758;DHT22;363;48.764;9.172;2022-12-20T07:09:09;8.10;99.90
758;DHT22;363;48.764;9.172;2022-12-20T07:11:36;8.20;99.90
758;DHT22;363;48.764;9.172;2022-12-20T07:14:02;8.20;99.90
758;DHT22;363;48.764;9.172;2022-12-20T07:16:28;8.30;99.90
758;DHT22;363;48.764;9.172;2022-12-20T07:18:53;8.30;99.90
758;DHT22;363;48.764;9.172;2022-12-20T07:21:20;8.30;99.90
758;DHT22;363;48.764;9.172;2022-12-20T07:23:47;8.40;99.90
758;DHT22;363;48.764;9.172;2022-12-20T07:26:13;8.30;99.90
758;DHT22;363;48.764;9.172;2022-12-20T07:28:39;8.30;99.90
758;DHT22;363;48.764;9.172;2022-12-20T07:31:05;8.30;99.90
758;DHT22;363;48.764;9.172;2022-12-20T07:33:31;8.30;99.90
758;DHT22;363;48.764;9.172;2022-12-20T07:36:11;8.30;99.90
758;DHT22;363;48.764;9.172;2022-12-20T07:38:37;8.30;99.90
758;DHT22;363;48.764;9.172;2022-12-20T07:41:11;8.20;99.90
758;DHT22;363;48.764;9.172;2022-12-20T07:43:37;8.10;99.90
758;DHT22;363;48.764;9.172;2022-12-20T07:46:05;8.10;99.90
758;DHT22;363;48.764;9.172;2022-12-20T07:48:31;8.30;99.90
758;DHT22;363;48.764;9.172;2022-12-20T07:51:00;8.20;99.90
758;DHT22;363;48.764;9.172;2022-12-20T07:53:27;8.40;99.90
758;DHT22;363;48.764;9.172;2022-12-20T07:55:57;8.40;99.90
758;DHT22;363;48.764;9.172;2022-12-20T07:58:24;8.50;99.90
758;DHT22;363;48.764;9.172;2022-12-20T08:00:51;8.50;99.90
758;DHT22;363;48.764;9.172;2022-12-20T08:03:20;8.80;99.90
758;DHT22;363;48.764;9.172;2022-12-20T08:05:50;8.60;99.90
758;DHT22;363;48.764;9.172;2022-12-20T08:08:18;8.70;99.90
758;DHT22;363;48.764;9.172;2022-12-20T08:10:44;8.80;99.90
758;DHT22;363;48.764;9.172;2022-12-20T08:13:11;9.10;99.90
758;DHT22;363;48.764;9.172;2022-12-20T08:15:36;9.00;99.90
758;DHT22;363;48.764;9.172;2022-12-20T08:18:03;9.20;99.90
758;DHT22;363;48.764;9.172;2022-12-20T08:20:30;9.20;99.90
758;DHT22;363;48.764;9.172;2022-12-20T08:22:56;9.10;99.90
758;DHT22;363;48.764;9.172;2022-12-20T08:25:22;9.20;99.90
758;DHT22;363;48.764;9.172;2022-12-20T08:27:48;9.10;99.90
758;DHT22;363;48.764;9.172;2022-12-20T08:30:14;9.50;99.90
758;DHT22;363;48.764;9.172;2022-12-20T08:32:40;9.60;99.90
758;DHT22;363;48.764;9.172;2022-12-20T08:35:06;9.40;99.90
758;DHT22;363;48.764;9.172;2022-12-20T08:37:32;9.60;99.90
758;DHT22;363;48.764;9.172;2022-12-20T08:39:58;9.60;99.90
758;DHT22;363;48.764;9.172;2022-12-20T08:42:25;9.90;99.90
758;DHT22;363;48.764;9.172;2022-12-20T08:44:51;9.80;99.90
758;DHT22;363;48.764;9.172;2022-12-20T08:47:17;9.80;99.90
758;DHT22;363;48.764;9.172;2022-12-20T08:49:42;9.90;99.90
758;DHT22;363;48.764;9.172;2022-12-20T08:52:08;9.90;99.90
758;DHT22;363;48.764;9.172;2022-12-20T08:54:33;10.20;99.90
758;DHT22;363;48.764;9.172;2022-12-20T08:56:59;9.90;99.90
758;DHT22;363;48.764;9.172;2022-12-20T08:59:25;10.20;99.90
758;DHT22;363;48.764;9.172;2022-12-20T09:01:51;10.60;99.90
758;DHT22;363;48.764;9.172;2022-12-20T09:04:18;10.40;99.90
758;DHT22;363;48.764;9.172;2022-12-20T09:06:44;10.60;99.90
758;DHT22;363;48.764;9.172;2022-12-20T09:09:09;10.40;99.90
758;DHT22;363;48.764;9.172;2022-12-20T09:11:35;10.50;99.90
758;DHT22;363;48.764;9.172;2022-12-20T09:14:01;10.70;99.90
758;DHT22;363;48.764;9.172;2022-12-20T09:16:29;10.40;99.90
758;DHT22;363;48.764;9.172;2022-12-20T09:18:57;10.40;99.90
758;DHT22;363;48.764;9.172;2022-12-20T09:21:23;10.50;99.90
758;DHT22;363;48.764;9.172;2022-12-20T09:23:49;10.60;99.90
758;DHT22;363;48.764;9.172;2022-12-20T09:26:17;10.30;99.90
758;DHT22;363;48.764;9.172;2022-12-20T09:28:43;10.40;99.90
758;DHT22;363;48.764;9.172;2022-12-20T09:31:17;10.30;99.90
758;DHT22;363;48.764;9.172;2022-12-20T09:33:43;10.10;99.90
758;DHT22;363;48.764;9.172;2022-12-20T09:36:21;10.40;99.90
758;DHT22;363;48.764;9.172;2022-12-20T09:38:47;10.00;99.90
758;DHT22;363;48.764;9.172;2022-12-20T09:43:54;10.00;99.90
758;DHT22;363;48.764;9.172;2022-12-20T09:46:21;10.30;99.90
758;DHT22;363;48.764;9.172;2022-12-20T09:48:47;10.20;99.90
758;DHT22;363;48.764;9.172;2022-12-20T09:57:04;10.30;99.90
758;DHT22;363;48.764;9.172;2022-12-20T09:59:34;10.50;99.90
758;DHT22;363;48.764;9.172;2022-12-20T10:02:08;10.90;99.90
758;DHT22;363;48.764;9.172;2022-12-20T10:04:35;10.90;99.90
758;DHT22;363;48.764;9.172;2022-12-20T10:07:26;11.30;99.90
758;DHT22;363;48.764;9.172;2022-12-20T10:24:11;11.20;99.90
758;DHT22;363;48.764;9.172;2022-12-20T10:26:39;11.30;99.80
758;DHT22;363;48.764;9.172;2022-12-20T10:29:05;11.40;99.90
758;DHT22;363;48.764;9.172;2022-12-20T10:31:30;11.10;99.90
758;DHT22;363;48.764;9.172;2022-12-20T10:33:56;11.00;99.90
758;DHT22;363;48.764;9.172;2022-12-20T10:36:27;11.10;99.90
758;DHT22;363;48.764;9.172;2022-12-20T10:38:56;10.90;99.90
758;DHT22;363;48.764;9.172;2022-12-20T10:41:27;11.00;99.90
758;DHT22;363;48.764;9.172;2022-12-20T10:44:19;10.80;99.90
758;DHT22;363;48.764;9.172;2022-12-20T10:46:52;11.10;99.90
758;DHT22;363;48.764;9.172;2022-12-20T10:49:36;11.00;99.90
758;DHT22;363;48.764;9.172;2022-12-20T10:54:36;10.90;99.90
758;DHT22;363;48.764;9.172;2022-12-20T10:57:25;10.80;99.90
758;DHT22;363;48.764;9.172;2022-12-20T10:59:54;10.70;99.90
758;DHT22;363;48.764;9.172;2022-12-20T11:02:39;10.80;99.90
758;DHT22;363;48.764;9.172;2022-12-20T11:07:34;10.90;99.90
758;DHT22;363;48.764;9.172;2022-12-20T11:10:18;10.90;99.90
758;DHT22;363;48.764;9.172;2022-12-20T11:12:55;11.10;99.90
758;DHT22;363;48.764;9.172;2022-12-20T11:15:34;10.90;99.90
758;DHT22;363;48.764;9.172;2022-12-20T11:18:12;11.20;99.90
758;DHT22;363;48.764;9.172;2022-12-20T11:20:42;11.40;99.90
758;DHT22;363;48.764;9.172;2022-12-20T11:23:27;11.30;99.90
758;DHT22;363;48.764;9.172;2022-12-20T11:26:28;11.50;99.90
758;DHT22;363;48.764;9.172;2022-12-20T11:37:22;11.90;99.90
758;DHT22;363;48.764;9.172;2022-12-20T11:48:02;11.90;98.90
758;DHT22;363;48.764;9.172;2022-12-20T11:54:02;12.10;99.30
758;DHT22;363;48.764;9.172;2022-12-20T11:56:33;12.10;98.60
758;DHT22;363;48.764;9.172;2022-12-20T12:02:08;12.20;99.10
758;DHT22;363;48.764;9.172;2022-12-20T12:04:43;12.10;98.50
758;DHT22;363;48.764;9.172;2022-12-20T12:07:16;12.00;98.10
758;DHT22;363;48.764;9.172;2022-12-20T12:12:11;11.70;98.30
758;DHT22;363;48.764;9.172;2022-12-20T12:23:21;11.50;98.10
758;DHT22;363;48.764;9.172;2022-12-20T12:25:48;11.90;98.30
758;DHT22;363;48.764;9.172;2022-12-20T12:28:15;11.70;98.20
758;DHT22;363;48.764;9.172;2022-12-20T12:30:47;11.60;98.20
758;DHT22;363;48.764;9.172;2022-12-20T12:33:17;11.90;98.50
758;DHT22;363;48.764;9.172;2022-12-20T12:41:11;11.90;98.60
758;DHT22;363;48.764;9.172;2022-12-20T12:46:19;11.80;98.80
758;DHT22;363;48.764;9.172;2022-12-20T12:51:27;11.70;99.10
758;DHT22;363;48.764;9.172;2022-12-20T12:54:02;11.60;99.20
758;DHT22;363;48.764;9.172;2022-12-20T12:56:30;11.50;99.20
758;DHT22;363;48.764;9.172;2022-12-20T13:01:54;11.60;99.20
758;DHT22;363;48.764;9.172;2022-12-20T13:04:21;11.80;99.20
758;DHT22;363;48.764;9.172;2022-12-20T13:11:55;11.70;99.10
758;DHT22;363;48.764;9.172;2022-12-20T13:21:46;12.00;98.90
758;DHT22;363;48.764;9.172;2022-12-20T13:37:51;11.90;97.90
758;DHT22;363;48.764;9.172;2022-12-20T13:40:41;12.00;98.10
758;DHT22;363;48.764;9.172;2022-12-20T13:43:17;11.90;98.20
758;DHT22;363;48.764;9.172;2022-12-20T13:49:14;11.90;98.10
758;DHT22;363;48.764;9.172;2022-12-20T13:51:43;11.80;98.00
758;DHT22;363;48.764;9.172;2022-12-20T13:54:17;11.90;98.40
758;DHT22;363;48.764;9.172;2022-12-20T13:56:50;11.90;97.90
758;DHT22;363;48.764;9.172;2022-12-20T13:59:29;12.00;98.30
758;DHT22;363;48.764;9.172;2022-12-20T14:01:57;12.00;98.10
758;DHT22;363;48.764;9.172;2022-12-20T14:04:25;11.90;98.10
758;DHT22;363;48.764;9.172;2022-12-20T14:06:55;11.90;98.10
758;DHT22;363;48.764;9.172;2022-12-20T14:09:31;11.70;98.40
758;DHT22;363;48.764;9.172;2022-12-20T14:12:05;11.80;99.00
758;DHT22;363;48.764;9.172;2022-12-20T14:14:38;11.90;98.50
758;DHT22;363;48.764;9.172;2022-12-20T14:17:25;11.90;98.40
758;DHT22;363;48.764;9.172;2022-12-20T14:20:14;11.90;98.20
758;DHT22;363;48.764;9.172;2022-12-20T14:25:15;11.80;97.90
758;DHT22;363;48.764;9.172;2022-12-20T14:27:42;12.10;98.10
758;DHT22;363;48.764;9.172;2022-12-20T14:30:43;12.00;98.40
758;DHT22;363;48.764;9.172;2022-12-20T14:35:50;11.90;98.50
758;DHT22;363;48.764;9.172;2022-12-20T14:38:28;11.70;98.70
758;DHT22;363;48.764;9.172;2022-12-20T14:40:54;11.70;98.70
758;DHT22;363;48.764;9.172;2022-12-20T14:43:53;11.60;98.80
758;DHT22;363;48.764;9.172;2022-12-20T14:46:20;11.70;99.00
758;DHT22;363;48.764;9.172;2022-12-20T14:48:47;11.80;99.10
758;DHT22;363;48.764;9.172;2022-12-20T14:51:18;11.80;99.20
758;DHT22;363;48.764;9.172;2022-12-20T14:53:46;11.60;99.40
758;DHT22;363;48.764;9.172;2022-12-20T14:56:15;11.30;99.70
758;DHT22;363;48.764;9.172;2022-12-20T14:58:42;11.30;99.90
758;DHT22;363;48.764;9.172;2022-12-20T15:03:54;11.20;99.90
758;DHT22;363;48.764;9.172;2022-12-20T15:06:40;11.10;99.90
758;DHT22;363;48.764;9.172;2022-12-20T15:09:07;11.10;99.90
758;DHT22;363;48.764;9.172;2022-12-20T15:11:34;11.10;99.90
758;DHT22;363;48.764;9.172;2022-12-20T15:14:01;11.00;99.90
758;DHT22;363;48.764;9.172;2022-12-20T15:16:29;11.00;99.90
758;DHT22;363;48.764;9.172;2022-12-20T15:19:02;11.00;99.90
758;DHT22;363;48.764;9.172;2022-12-20T15:21:35;11.00;99.90
758;DHT22;363;48.764;9.172;2022-12-20T15:24:04;10.90;99.90
758;DHT22;363;48.764;9.172;2022-12-20T15:26:33;10.90;99.90
758;DHT22;363;48.764;9.172;2022-12-20T15:28:59;11.20;99.90
758;DHT22;363;48.764;9.172;2022-12-20T15:31:27;11.00;99.90
758;DHT22;363;48.764;9.172;2022-12-20T15:33:54;10.90;99.90
758;DHT22;363;48.764;9.172;2022-12-20T15:36:24;10.90;99.90
758;DHT22;363;48.764;9.172;2022-12-20T15:38:54;10.90;99.90
758;DHT22;363;48.764;9.172;2022-12-20T15:41:31;10.90;99.90
758;DHT22;363;48.764;9.172;2022-12-20T15:44:06;10.70;99.90
758;DHT22;363;48.764;9.172;2022-12-20T15:46:35;10.80;99.90
758;DHT22;363;48.764;9.172;2022-12-20T15:49:00;10.80;99.80
758;DHT22;363;48.764;9.172;2022-12-20T15:51:36;10.80;99.60
758;DHT22;363;48.764;9.172;2022-12-20T15:54:11;11.10;99.90
758;DHT22;363;48.764;9.172;2022-12-20T15:56:38;11.00;99.60
758;DHT22;363;48.764;9.172;2022-12-20T15:59:04;11.00;99.20
758;DHT22;363;48.764;9.172;2022-12-20T16:01:37;11.20;99.00
758;DHT22;363;48.764;9.172;2022-12-20T16:04:04;11.20;99.00
758;DHT22;363;48.764;9.172;2022-12-20T16:06:30;11.30;99.20
758;DHT22;363;48.764;9.172;2022-12-20T16:08:56;11.20;99.40
758;DHT22;363;48.764;9.172;2022-12-20T16:11:27;11.30;99.40
758;DHT22;363;48.764;9.172;2022-12-20T16:13:55;11.10;99.40
758;DHT22;363;48.764;9.172;2022-12-20T16:16:23;11.20;99.30
758;DHT22;363;48.764;9.172;2022-12-20T16:18:49;11.00;99.60
758;DHT22;363;48.764;9.172;2022-12-20T16:21:18;11.00;99.90
758;DHT22;363;48.764;9.172;2022-12-20T16:23:45;11.20;99.90
758;DHT22;363;48.764;9.172;2022-12-20T16:26:16;10.90;99.90
758;DHT22;363;48.764;9.172;2022-12-20T16:28:44;10.70;99.90
758;DHT22;363;48.764;9.172;2022-12-20T16:31:16;10.80;99.90
758;DHT22;363;48.764;9.172;2022-12-20T16:33:45;11.00;99.90
758;DHT22;363;48.764;9.172;2022-12-20T16:36:11;10.70;99.90
758;DHT22;363;48.764;9.172;2022-12-20T16:38:37;10.70;99.90
758;DHT22;363;48.764;9.172;2022-12-20T16:41:20;10.70;99.90
758;DHT22;363;48.764;9.172;2022-12-20T16:43:47;10.80;99.90
758;DHT22;363;48.764;9.172;2022-12-20T16:46:15;10.80;99.90
758;DHT22;363;48.764;9.172;2022-12-20T16:48:42;10.60;99.90
758;DHT22;363;48.764;9.172;2022-12-20T16:51:24;10.80;99.90
758;DHT22;363;48.764;9.172;2022-12-20T16:53:55;10.80;99.90
758;DHT22;363;48.764;9.172;2022-12-20T16:56:21;11.00;99.90
758;DHT22;363;48.764;9.172;2022-12-20T16:58:47;10.60;99.90
758;DHT22;363;48.764;9.172;2022-12-20T17:01:22;10.60;99.90
758;DHT22;363;48.764;9.172;2022-12-20T17:03:49;10.70;99.90
758;DHT22;363;48.764;9.172;2022-12-20T17:06:16;11.10;99.90
758;DHT22;363;48.764;9.172;2022-12-20T17:08:42;10.60;99.90
758;DHT22;363;48.764;9.172;2022-12-20T17:11:20;10.80;99.90
758;DHT22;363;48.764;9.172;2022-12-20T17:13:48;10.70;99.90
758;DHT22;363;48.764;9.172;2022-12-20T17:16:15;10.60;99.90
758;DHT22;363;48.764;9.172;2022-12-20T17:18:42;10.70;99.90
758;DHT22;363;48.764;9.172;2022-12-20T17:23:47;10.70;99.90
758;DHT22;363;48.764;9.172;2022-12-20T17:26:19;10.70;99.90
758;DHT22;363;48.764;9.172;2022-12-20T17:28:46;11.10;99.80
758;DHT22;363;48.764;9.172;2022-12-20T17:31:24;11.10;99.60
758;DHT22;363;48.764;9.172;2022-12-20T17:33:50;11.00;99.40
758;DHT22;363;48.764;9.172;2022-12-20T17:36:17;11.10;99.00
758;DHT22;363;48.764;9.172;2022-12-20T17:38:42;11.40;98.80
758;DHT22;363;48.764;9.172;2022-12-20T17:41:21;11.50;98.70
758;DHT22;363;48.764;9.172;2022-12-20T17:43:48;11.50;98.50
758;DHT22;363;48.764;9.172;2022-12-20T17:46:14;11.20;98.00
758;DHT22;363;48.764;9.172;2022-12-20T17:48:39;11.60;98.40
758;DHT22;363;48.764;9.172;2022-12-20T17:53:38;11.50;98.10
758;DHT22;363;48.764;9.172;2022-12-20T17:56:04;11.50;98.00
758;DHT22;363;48.764;9.172;2022-12-20T17:58:29;11.50;98.30
758;DHT22;363;48.764;9.172;2022-12-20T18:00:55;11.50;98.60
758;DHT22;363;48.764;9.172;2022-12-20T18:03:20;11.50;98.30
758;DHT22;363;48.764;9.172;2022-12-20T18:05:46;11.40;98.50
758;DHT22;363;48.764;9.172;2022-12-20T18:08:11;11.30;98.70
758;DHT22;363;48.764;9.172;2022-12-20T18:10:37;11.30;98.50
758;DHT22;363;48.764;9.172;2022-12-20T18:13:02;11.40;98.60
758;DHT22;363;48.764;9.172;2022-12-20T18:15:28;11.30;98.50
758;DHT22;363;48.764;9.172;2022-12-20T18:17:53;11.00;98.80
758;DHT22;363;48.764;9.172;2022-12-20T18:20:19;11.10;99.10
758;DHT22;363;48.764;9.172;2022-12-20T18:22:45;10.90;99.30
758;DHT22;363;48.764;9.172;2022-12-20T18:25:10;11.20;99.10
758;DHT22;363;48.764;9.172;2022-12-20T18:27:40;11.00;99.30
758;DHT22;363;48.764;9.172;2022-12-20T18:30:06;11.10;99.60
758;DHT22;363;48.764;9.172;2022-12-20T18:32:32;10.90;99.40
758;DHT22;363;48.764;9.172;2022-12-20T18:34:58;11.00;99.30
758;DHT22;363;48.764;9.172;2022-12-20T18:37:23;11.10;99.20
758;DHT22;363;48.764;9.172;2022-12-20T18:39:50;11.20;99.30
758;DHT22;363;48.764;9.172;2022-12-20T18:42:15;11.10;99.20
758;DHT22;363;48.764;9.172;2022-12-20T18:44:41;11.00;99.30
758;DHT22;363;48.764;9.172;2022-12-20T18:47:06;10.90;99.50
758;DHT22;363;48.764;9.172;2022-12-20T18:49:32;10.90;99.90
758;DHT22;363;48.764;9.172;2022-12-20T18:51:58;11.00;99.70
758;DHT22;363;48.764;9.172;2022-12-20T18:54:25;10.90;99.80
758;DHT22;363;48.764;9.172;2022-12-20T18:56:50;10.80;99.10
758;DHT22;363;48.764;9.172;2022-12-20T18:59:16;11.00;99.00
758;DHT22;363;48.764;9.172;2022-12-20T19:01:42;11.20;98.90
758;DHT22;363;48.764;9.172;2022-12-20T19:04:08;11.20;98.90
758;DHT22;363;48.764;9.172;2022-12-20T19:06:35;10.90;99.00
758;DHT22;363;48.764;9.172;2022-12-20T19:09:03;11.10;99.10